sensor_id;sensor_type;location;lat;lon;timestamp;temperature;humidity
18882;DHT22;9573;50.948;11.600;2022-09-01T00:01:46;15.50;99.90
18882;DHT22;9573;50.948;11.600;2022-09-01T00:04:15;15.40;99.90
18882;DHT22;9573;50.948;11.600;2022-09-01T00:06:45;15.40;99.90
18882;DHT22;9573;50.948;11.600;2022-09-01T00:09:15;15.30;99.90
18882;DHT22;9573;50.948;11.600;2022-09-01T00:11:47;15.20;99.90
18882;DHT22;9573;50.948;11.600;2022-09-01T00:14:17;15.20;99.90
18882;DHT22;9573;50.948;11.600;2022-09-01T00:16:45;15.10;99.90
18882;DHT22;9573;50.948;11.600;2022-09-01T00:19:12;15.10;99.90
18882;DHT22;9573;50.948;11.600;2022-09-01T00:21:41;15.10;99.90
18882;DHT22;9573;50.948;11.600;2022-09-01T00:24:14;15.10;99.90
18882;DHT22;9573;50.948;11.600;2022-09-01T00:26:44;15.00;99.90
18882;DHT22;9573;50.948;11.600;2022-09-01T00:29:12;15.00;99.90
18882;DHT22;9573;50.948;11.600;2022-09-01T00:31:39;15.00;99.90
18882;DHT22;9573;50.948;11.600;2022-09-01T00:34:07;15.00;99.90
18882;DHT22;9573;50.948;11.600;2022-09-01T00:36:34;15.10;99.90
18882;DHT22;9573;50.948;11.600;2022-09-01T00:39:02;15.10;99.90
18882;DHT22;9573;50.948;11.600;2022-09-01T00:41:33;15.00;99.90
18882;DHT22;9573;50.948;11.600;2022-09-01T00:44:05;15.00;99.90
18882;DHT22;9573;50.948;11.600;2022-09-01T00:46:36;15.00;99.90
18882;DHT22;9573;50.948;11.600;2022-09-01T00:49:08;14.90;99.90
18882;DHT22;9573;50.948;11.600;2022-09-01T00:51:40;14.90;99.90
18882;DHT22;9573;50.948;11.600;2022-09-01T00:54:14;14.90;99.90
18882;DHT22;9573;50.948;11.600;2022-09-01T00:56:45;14.90;99.90
18882;DHT22;9573;50.948;11.600;2022-09-01T00:59:16;14.80;99.90
18882;DHT22;9573;50.948;11.600;2022-09-01T01:01:45;14.70;99.90
18882;DHT22;9573;50.948;11.600;2022-09-01T01:04:12;14.70;99.90
18882;DHT22;9573;50.948;11.600;2022-09-01T01:06:41;14.60;99.90
18882;DHT22;9573;50.948;11.600;2022-09-01T01:09:14;14.50;99.90
18882;DHT22;9573;50.948;11.600;2022-09-01T01:11:43;14.50;99.90
18882;DHT22;9573;50.948;11.600;2022-09-01T01:14:14;14.40;99.90
18882;DHT22;9573;50.948;11.600;2022-09-01T01:16:45;14.40;99.90
18882;DHT22;9573;50.948;11.600;2022-09-01T01:19:21;14.30;99.90
18882;DHT22;9573;50.948;11.600;2022-09-01T01:22:14;14.30;99.90
18882;DHT22;9573;50.948;11.600;2022-09-01T01:25:05;14.20;99.90
18882;DHT22;9573;50.948;11.600;2022-09-01T01:27:35;14.20;99.90
18882;DHT22;9573;50.948;11.600;2022-09-01T01:30:05;14.10;99.90
18882;DHT22;9573;50.948;11.600;2022-09-01T01:32:34;14.00;99.90
18882;DHT22;9573;50.948;11.600;2022-09-01T01:35:01;14.00;99.90
18882;DHT22;9573;50.948;11.600;2022-09-01T01:37:30;13.90;99.90
18882;DHT22;9573;50.948;11.600;2022-09-01T01:39:58;13.90;99.90
18882;DHT22;9573;50.948;11.600;2022-09-01T01:42:26;13.80;99.90
18882;DHT22;9573;50.948;11.600;2022-09-01T01:44:54;13.80;99.90
18882;DHT22;9573;50.948;11.600;2022-09-01T01:47:22;13.70;99.90
18882;DHT22;9573;50.948;11.600;2022-09-01T01:49:49;13.60;99.90
18882;DHT22;9573;50.948;11.600;2022-09-01T01:52:17;13.60;99.90
18882;DHT22;9573;50.948;11.600;2022-09-01T01:54:46;13.60;99.90
18882;DHT22;9573;50.948;11.600;2022-09-01T01:57:14;13.50;99.90
18882;DHT22;9573;50.948;11.600;2022-09-01T01:59:43;13.50;99.90
18882;DHT22;9573;50.948;11.600;2022-09-01T02:02:11;13.50;99.90
18882;DHT22;9573;50.948;11.600;2022-09-01T02:04:38;13.40;99.90
18882;DHT22;9573;50.948;11.600;2022-09-01T02:07:09;13.30;99.90
18882;DHT22;9573;50.948;11.600;2022-09-01T02:09:38;13.30;99.90
18882;DHT22;9573;50.948;11.600;2022-09-01T02:12:08;13.30;99.90
18882;DHT22;9573;50.948;11.600;2022-09-01T02:14:36;13.30;99.90
18882;DHT22;9573;50.948;11.600;2022-09-01T02:17:05;13.20;99.90
18882;DHT22;9573;50.948;11.600;2022-09-01T02:19:33;13.20;99.90
18882;DHT22;9573;50.948;11.600;2022-09-01T02:22:02;13.10;99.90
18882;DHT22;9573;50.948;11.600;2022-09-01T02:24:29;13.00;99.90
18882;DHT22;9573;50.948;11.600;2022-09-01T02:26:57;13.00;99.90
18882;DHT22;9573;50.948;11.600;2022-09-01T02:29:25;13.00;99.90
18882;DHT22;9573;50.948;11.600;2022-09-01T02:31:54;12.90;99.90
18882;DHT22;9573;50.948;11.600;2022-09-01T02:34:24;12.90;99.90
18882;DHT22;9573;50.948;11.600;2022-09-01T02:36:56;12.80;99.90
18882;DHT22;9573;50.948;11.600;2022-09-01T02:39:26;12.80;99.90
18882;DHT22;9573;50.948;11.600;2022-09-01T02:41:57;12.70;99.90
18882;DHT22;9573;50.948;11.600;2022-09-01T02:44:25;12.60;99.90
18882;DHT22;9573;50.948;11.600;2022-09-01T02:46:53;12.60;99.90
18882;DHT22;9573;50.948;11.600;2022-09-01T02:49:23;12.60;99.90
18882;DHT22;9573;50.948;11.600;2022-09-01T02:51:54;12.60;99.90
18882;DHT22;9573;50.948;11.600;2022-09-01T02:54:26;12.60;99.90
18882;DHT22;9573;50.948;11.600;2022-09-01T02:56:54;12.50;99.90
18882;DHT22;9573;50.948;11.600;2022-09-01T02:59:24;12.50;99.90
18882;DHT22;9573;50.948;11.600;2022-09-01T03:01:53;12.50;99.90
18882;DHT22;9573;50.948;11.600;2022-09-01T03:04:23;12.50;99.90
18882;DHT22;9573;50.948;11.600;2022-09-01T03:06:51;12.40;99.90
18882;DHT22;9573;50.948;11.600;2022-09-01T03:09:19;12.30;99.90
18882;DHT22;9573;50.948;11.600;2022-09-01T03:11:48;12.40;99.90
18882;DHT22;9573;50.948;11.600;2022-09-01T03:14:18;12.30;99.90
18882;DHT22;9573;50.948;11.600;2022-09-01T03:16:45;12.30;99.90
18882;DHT22;9573;50.948;11.600;2022-09-01T03:19:13;12.30;99.90
18882;DHT22;9573;50.948;11.600;2022-09-01T03:21:43;12.20;99.90
18882;DHT22;9573;50.948;11.600;2022-09-01T03:24:13;12.20;99.90
18882;DHT22;9573;50.948;11.600;2022-09-01T03:26:43;12.10;99.90
18882;DHT22;9573;50.948;11.600;2022-09-01T03:29:12;12.20;99.90
18882;DHT22;9573;50.948;11.600;2022-09-01T03:31:39;12.10;99.90
18882;DHT22;9573;50.948;11.600;2022-09-01T03:34:07;12.10;99.90
18882;DHT22;9573;50.948;11.600;2022-09-01T03:36:35;12.10;99.90
18882;DHT22;9573;50.948;11.600;2022-09-01T03:39:04;12.10;99.90
18882;DHT22;9573;50.948;11.600;2022-09-01T03:41:34;12.00;99.90
18882;DHT22;9573;50.948;11.600;2022-09-01T03:44:02;12.00;99.90
18882;DHT22;9573;50.948;11.600;2022-09-01T03:46:30;12.00;99.90
18882;DHT22;9573;50.948;11.600;2022-09-01T03:48:59;12.00;99.90
18882;DHT22;9573;50.948;11.600;2022-09-01T03:51:27;12.00;99.90
18882;DHT22;9573;50.948;11.600;2022-09-01T03:53:56;12.00;99.90
18882;DHT22;9573;50.948;11.600;2022-09-01T03:56:26;12.00;99.90
18882;DHT22;9573;50.948;11.600;2022-09-01T03:58:55;12.00;99.90
18882;DHT22;9573;50.948;11.600;2022-09-01T04:01:25;12.10;99.90
18882;DHT22;9573;50.948;11.600;2022-09-01T04:03:53;12.10;99.90
18882;DHT22;9573;50.948;11.600;2022-09-01T04:06:20;12.20;99.90
18882;DHT22;9573;50.948;11.600;2022-09-01T04:08:50;12.20;99.90
18882;DHT22;9573;50.948;11.600;2022-09-01T04:11:28;12.30;99.90
18882;DHT22;9573;50.948;11.600;2022-09-01T04:13:57;12.40;99.90
18882;DHT22;9573;50.948;11.600;2022-09-01T04:16:26;12.50;99.90
18882;DHT22;9573;50.948;11.600;2022-09-01T04:19:13;12.50;99.90
18882;DHT22;9573;50.948;11.600;2022-09-01T04:21:45;12.50;99.90
18882;DHT22;9573;50.948;11.600;2022-09-01T04:24:15;12.60;99.90
18882;DHT22;9573;50.948;11.600;2022-09-01T04:26:45;12.70;99.90
18882;DHT22;9573;50.948;11.600;2022-09-01T04:29:14;12.70;99.90
18882;DHT22;9573;50.948;11.600;2022-09-01T04:31:43;12.70;99.90
18882;DHT22;9573;50.948;11.600;2022-09-01T04:34:18;12.70;99.90
18882;DHT22;9573;50.948;11.600;2022-09-01T04:36:47;12.70;99.90
18882;DHT22;9573;50.948;11.600;2022-09-01T04:39:21;12.80;99.90
18882;DHT22;9573;50.948;11.600;2022-09-01T04:41:51;12.80;99.90
18882;DHT22;9573;50.948;11.600;2022-09-01T04:44:18;12.90;99.90
18882;DHT22;9573;50.948;11.600;2022-09-01T04:46:47;12.90;99.90
18882;DHT22;9573;50.948;11.600;2022-09-01T04:49:17;13.00;99.90
18882;DHT22;9573;50.948;11.600;2022-09-01T04:51:49;13.00;99.90
18882;DHT22;9573;50.948;11.600;2022-09-01T04:54:17;13.10;99.90
18882;DHT22;9573;50.948;11.600;2022-09-01T04:56:47;13.10;99.90
18882;DHT22;9573;50.948;11.600;2022-09-01T04:59:19;13.20;99.90
18882;DHT22;9573;50.948;11.600;2022-09-01T05:01:48;13.20;99.90
18882;DHT22;9573;50.948;11.600;2022-09-01T05:04:18;13.20;99.90
18882;DHT22;9573;50.948;11.600;2022-09-01T05:06:49;13.30;99.90
18882;DHT22;9573;50.948;11.600;2022-09-01T05:09:19;13.30;99.90
18882;DHT22;9573;50.948;11.600;2022-09-01T05:11:46;13.40;99.90
18882;DHT22;9573;50.948;11.600;2022-09-01T05:14:14;13.40;99.90
18882;DHT22;9573;50.948;11.600;2022-09-01T05:16:45;13.50;99.90
18882;DHT22;9573;50.948;11.600;2022-09-01T05:19:13;13.60;99.90
18882;DHT22;9573;50.948;11.600;2022-09-01T05:21:41;13.70;99.90
18882;DHT22;9573;50.948;11.600;2022-09-01T05:24:11;13.80;99.90
18882;DHT22;9573;50.948;11.600;2022-09-01T05:26:41;13.90;99.90
18882;DHT22;9573;50.948;11.600;2022-09-01T05:29:12;14.10;99.90
18882;DHT22;9573;50.948;11.600;2022-09-01T05:31:45;14.20;99.90
18882;DHT22;9573;50.948;11.600;2022-09-01T05:34:13;14.40;99.90
18882;DHT22;9573;50.948;11.600;2022-09-01T05:36:45;14.60;99.90
18882;DHT22;9573;50.948;11.600;2022-09-01T05:39:15;14.80;99.90
18882;DHT22;9573;50.948;11.600;2022-09-01T05:41:42;15.10;99.90
18882;DHT22;9573;50.948;11.600;2022-09-01T05:44:11;15.40;99.90
18882;DHT22;9573;50.948;11.600;2022-09-01T05:46:39;15.70;99.90
18882;DHT22;9573;50.948;11.600;2022-09-01T05:49:10;16.40;99.90
18882;DHT22;9573;50.948;11.600;2022-09-01T05:51:45;18.60;99.90
18882;DHT22;9573;50.948;11.600;2022-09-01T05:54:16;19.50;99.90
18882;DHT22;9573;50.948;11.600;2022-09-01T05:56:45;19.40;99.90
18882;DHT22;9573;50.948;11.600;2022-09-01T05:59:14;19.10;99.90
18882;DHT22;9573;50.948;11.600;2022-09-01T06:01:41;19.00;99.90
18882;DHT22;9573;50.948;11.600;2022-09-01T06:04:10;19.00;99.90
18882;DHT22;9573;50.948;11.600;2022-09-01T06:06:39;19.50;99.90
18882;DHT22;9573;50.948;11.600;2022-09-01T06:09:13;22.80;99.90
18882;DHT22;9573;50.948;11.600;2022-09-01T06:11:42;25.70;99.90
18882;DHT22;9573;50.948;11.600;2022-09-01T06:14:11;27.30;99.90
18882;DHT22;9573;50.948;11.600;2022-09-01T06:16:40;28.50;99.90
18882;DHT22;9573;50.948;11.600;2022-09-01T06:19:09;28.80;97.00
18882;DHT22;9573;50.948;11.600;2022-09-01T06:21:37;28.30;95.90
18882;DHT22;9573;50.948;11.600;2022-09-01T06:24:05;27.50;96.20
18882;DHT22;9573;50.948;11.600;2022-09-01T06:26:35;27.60;95.10
18882;DHT22;9573;50.948;11.600;2022-09-01T06:29:06;27.90;93.70
18882;DHT22;9573;50.948;11.600;2022-09-01T06:31:35;28.10;92.30
18882;DHT22;9573;50.948;11.600;2022-09-01T06:34:05;28.00;91.90
18882;DHT22;9573;50.948;11.600;2022-09-01T06:36:36;27.50;91.80
18882;DHT22;9573;50.948;11.600;2022-09-01T06:39:05;27.20;91.70
18882;DHT22;9573;50.948;11.600;2022-09-01T06:41:33;27.00;91.70
18882;DHT22;9573;50.948;11.600;2022-09-01T06:44:03;27.10;91.80
18882;DHT22;9573;50.948;11.600;2022-09-01T06:46:30;27.60;91.30
18882;DHT22;9573;50.948;11.600;2022-09-01T06:48:58;28.20;90.10
18882;DHT22;9573;50.948;11.600;2022-09-01T06:51:26;28.50;88.30
18882;DHT22;9573;50.948;11.600;2022-09-01T06:53:55;28.80;86.90
18882;DHT22;9573;50.948;11.600;2022-09-01T06:56:24;29.30;85.10
18882;DHT22;9573;50.948;11.600;2022-09-01T06:58:53;29.70;83.40
18882;DHT22;9573;50.948;11.600;2022-09-01T07:01:21;30.20;81.70
18882;DHT22;9573;50.948;11.600;2022-09-01T07:03:50;30.70;78.90
18882;DHT22;9573;50.948;11.600;2022-09-01T07:06:20;30.80;77.60
18882;DHT22;9573;50.948;11.600;2022-09-01T07:08:48;31.30;75.70
18882;DHT22;9573;50.948;11.600;2022-09-01T07:11:22;31.50;74.10
18882;DHT22;9573;50.948;11.600;2022-09-01T07:13:54;31.40;73.00
18882;DHT22;9573;50.948;11.600;2022-09-01T07:16:25;31.10;74.00
18882;DHT22;9573;50.948;11.600;2022-09-01T07:18:54;29.60;76.80
18882;DHT22;9573;50.948;11.600;2022-09-01T07:21:23;29.50;77.20
18882;DHT22;9573;50.948;11.600;2022-09-01T07:23:50;30.80;74.50
18882;DHT22;9573;50.948;11.600;2022-09-01T07:26:19;31.20;72.70
18882;DHT22;9573;50.948;11.600;2022-09-01T07:28:49;29.90;75.00
18882;DHT22;9573;50.948;11.600;2022-09-01T07:31:18;29.20;76.40
18882;DHT22;9573;50.948;11.600;2022-09-01T07:33:48;30.50;74.30
18882;DHT22;9573;50.948;11.600;2022-09-01T07:36:16;32.30;70.40
18882;DHT22;9573;50.948;11.600;2022-09-01T07:38:44;33.60;67.50
18882;DHT22;9573;50.948;11.600;2022-09-01T07:41:20;34.70;64.10
18882;DHT22;9573;50.948;11.600;2022-09-01T07:43:48;35.80;61.00
18882;DHT22;9573;50.948;11.600;2022-09-01T07:46:16;36.40;59.00
18882;DHT22;9573;50.948;11.600;2022-09-01T07:48:43;37.00;57.10
18882;DHT22;9573;50.948;11.600;2022-09-01T07:51:14;37.00;55.90
18882;DHT22;9573;50.948;11.600;2022-09-01T07:53:44;37.20;55.30
18882;DHT22;9573;50.948;11.600;2022-09-01T07:56:13;38.10;54.00
18882;DHT22;9573;50.948;11.600;2022-09-01T07:58:43;38.80;52.50
18882;DHT22;9573;50.948;11.600;2022-09-01T08:01:13;39.80;51.30
18882;DHT22;9573;50.948;11.600;2022-09-01T08:03:44;40.30;49.60
18882;DHT22;9573;50.948;11.600;2022-09-01T08:06:13;40.70;48.70
18882;DHT22;9573;50.948;11.600;2022-09-01T08:08:44;41.10;47.60
18882;DHT22;9573;50.948;11.600;2022-09-01T08:11:15;41.10;47.10
18882;DHT22;9573;50.948;11.600;2022-09-01T08:13:46;41.10;47.10
18882;DHT22;9573;50.948;11.600;2022-09-01T08:16:13;40.20;47.70
18882;DHT22;9573;50.948;11.600;2022-09-01T08:18:41;39.20;48.60
18882;DHT22;9573;50.948;11.600;2022-09-01T08:21:11;37.70;50.00
18882;DHT22;9573;50.948;11.600;2022-09-01T08:23:39;37.30;50.10
18882;DHT22;9573;50.948;11.600;2022-09-01T08:26:07;38.00;49.60
18882;DHT22;9573;50.948;11.600;2022-09-01T08:28:36;39.00;48.40
18882;DHT22;9573;50.948;11.600;2022-09-01T08:31:10;40.40;47.20
18882;DHT22;9573;50.948;11.600;2022-09-01T08:33:39;41.30;46.30
18882;DHT22;9573;50.948;11.600;2022-09-01T08:36:08;41.90;45.10
18882;DHT22;9573;50.948;11.600;2022-09-01T08:38:37;42.40;44.60
18882;DHT22;9573;50.948;11.600;2022-09-01T08:41:12;42.40;43.70
18882;DHT22;9573;50.948;11.600;2022-09-01T08:43:49;42.30;43.80
18882;DHT22;9573;50.948;11.600;2022-09-01T08:46:25;42.40;43.60
18882;DHT22;9573;50.948;11.600;2022-09-01T08:48:55;42.20;43.30
18882;DHT22;9573;50.948;11.600;2022-09-01T08:51:29;42.10;43.20
18882;DHT22;9573;50.948;11.600;2022-09-01T08:54:03;41.90;42.90
18882;DHT22;9573;50.948;11.600;2022-09-01T08:56:37;41.90;43.20
18882;DHT22;9573;50.948;11.600;2022-09-01T08:59:06;41.90;43.00
18882;DHT22;9573;50.948;11.600;2022-09-01T09:01:43;41.20;43.40
18882;DHT22;9573;50.948;11.600;2022-09-01T09:04:20;40.50;43.90
18882;DHT22;9573;50.948;11.600;2022-09-01T09:07:01;40.70;44.50
18882;DHT22;9573;50.948;11.600;2022-09-01T09:09:36;40.50;45.00
18882;DHT22;9573;50.948;11.600;2022-09-01T09:12:22;40.80;44.20
18882;DHT22;9573;50.948;11.600;2022-09-01T09:15:05;40.70;43.90
18882;DHT22;9573;50.948;11.600;2022-09-01T09:17:40;40.40;44.40
18882;DHT22;9573;50.948;11.600;2022-09-01T09:20:11;39.90;44.90
18882;DHT22;9573;50.948;11.600;2022-09-01T09:22:38;40.00;44.70
18882;DHT22;9573;50.948;11.600;2022-09-01T09:25:09;40.30;44.80
18882;DHT22;9573;50.948;11.600;2022-09-01T09:27:40;40.40;44.40
18882;DHT22;9573;50.948;11.600;2022-09-01T09:30:11;40.40;44.10
18882;DHT22;9573;50.948;11.600;2022-09-01T09:32:49;40.40;44.20
18882;DHT22;9573;50.948;11.600;2022-09-01T09:35:23;39.60;44.20
18882;DHT22;9573;50.948;11.600;2022-09-01T09:37:52;39.30;44.90
18882;DHT22;9573;50.948;11.600;2022-09-01T09:40:21;39.50;44.80
18882;DHT22;9573;50.948;11.600;2022-09-01T09:43:04;39.50;44.80
18882;DHT22;9573;50.948;11.600;2022-09-01T09:45:35;39.60;44.30
18882;DHT22;9573;50.948;11.600;2022-09-01T09:48:07;39.60;44.60
18882;DHT22;9573;50.948;11.600;2022-09-01T09:50:36;39.40;44.50
18882;DHT22;9573;50.948;11.600;2022-09-01T09:53:13;39.20;44.90
18882;DHT22;9573;50.948;11.600;2022-09-01T09:55:54;39.20;44.70
18882;DHT22;9573;50.948;11.600;2022-09-01T09:58:27;39.40;44.60
18882;DHT22;9573;50.948;11.600;2022-09-01T10:01:03;39.60;44.90
18882;DHT22;9573;50.948;11.600;2022-09-01T10:03:42;39.30;44.50
18882;DHT22;9573;50.948;11.600;2022-09-01T10:06:28;38.90;44.70
18882;DHT22;9573;50.948;11.600;2022-09-01T10:08:57;38.30;45.20
18882;DHT22;9573;50.948;11.600;2022-09-01T10:11:27;37.90;45.70
18882;DHT22;9573;50.948;11.600;2022-09-01T10:13:57;38.00;45.20
18882;DHT22;9573;50.948;11.600;2022-09-01T10:16:27;37.60;45.60
18882;DHT22;9573;50.948;11.600;2022-09-01T10:19:01;37.70;45.70
18882;DHT22;9573;50.948;11.600;2022-09-01T10:21:32;38.00;45.30
18882;DHT22;9573;50.948;11.600;2022-09-01T10:24:12;38.20;44.80
18882;DHT22;9573;50.948;11.600;2022-09-01T10:26:45;35.90;47.00
18882;DHT22;9573;50.948;11.600;2022-09-01T10:29:20;32.90;51.50
18882;DHT22;9573;50.948;11.600;2022-09-01T10:31:52;30.70;54.50
18882;DHT22;9573;50.948;11.600;2022-09-01T10:34:21;31.10;54.80
18882;DHT22;9573;50.948;11.600;2022-09-01T10:36:49;33.10;52.20
18882;DHT22;9573;50.948;11.600;2022-09-01T10:39:18;34.20;50.10
18882;DHT22;9573;50.948;11.600;2022-09-01T10:41:50;33.10;51.20
18882;DHT22;9573;50.948;11.600;2022-09-01T10:44:24;32.70;51.90
18882;DHT22;9573;50.948;11.600;2022-09-01T10:47:00;33.60;50.30
18882;DHT22;9573;50.948;11.600;2022-09-01T10:52:57;35.30;49.00
18882;DHT22;9573;50.948;11.600;2022-09-01T10:55:46;35.70;45.30
18882;DHT22;9573;50.948;11.600;2022-09-01T10:58:38;34.50;46.80
18882;DHT22;9573;50.948;11.600;2022-09-01T11:01:11;33.10;49.30
18882;DHT22;9573;50.948;11.600;2022-09-01T11:03:49;33.60;49.10
18882;DHT22;9573;50.948;11.600;2022-09-01T11:09:35;32.10;50.30
18882;DHT22;9573;50.948;11.600;2022-09-01T11:12:27;31.90;50.50
18882;DHT22;9573;50.948;11.600;2022-09-01T11:15:04;33.40;49.70
18882;DHT22;9573;50.948;11.600;2022-09-01T11:17:35;34.20;48.70
18882;DHT22;9573;50.948;11.600;2022-09-01T11:20:07;32.70;49.30
18882;DHT22;9573;50.948;11.600;2022-09-01T11:22:40;31.10;51.40
18882;DHT22;9573;50.948;11.600;2022-09-01T11:25:31;29.90;53.30
18882;DHT22;9573;50.948;11.600;2022-09-01T11:31:22;28.70;54.50
18882;DHT22;9573;50.948;11.600;2022-09-01T11:34:12;28.80;55.10
18882;DHT22;9573;50.948;11.600;2022-09-01T11:37:02;29.40;54.30
18882;DHT22;9573;50.948;11.600;2022-09-01T11:39:45;29.10;54.70
18882;DHT22;9573;50.948;11.600;2022-09-01T11:42:18;28.60;54.70
18882;DHT22;9573;50.948;11.600;2022-09-01T11:44:51;28.00;55.60
18882;DHT22;9573;50.948;11.600;2022-09-01T11:47:25;27.50;55.80
18882;DHT22;9573;50.948;11.600;2022-09-01T11:49:56;27.00;56.30
18882;DHT22;9573;50.948;11.600;2022-09-01T11:52:27;28.30;52.70
18882;DHT22;9573;50.948;11.600;2022-09-01T11:55:02;29.60;51.20
18882;DHT22;9573;50.948;11.600;2022-09-01T11:57:33;30.40;49.80
18882;DHT22;9573;50.948;11.600;2022-09-01T12:00:05;30.10;52.70
18882;DHT22;9573;50.948;11.600;2022-09-01T12:02:42;30.20;53.90
18882;DHT22;9573;50.948;11.600;2022-09-01T12:05:27;30.80;53.30
18882;DHT22;9573;50.948;11.600;2022-09-01T12:07:56;30.90;53.30
18882;DHT22;9573;50.948;11.600;2022-09-01T12:10:31;30.60;53.40
18882;DHT22;9573;50.948;11.600;2022-09-01T12:13:02;30.50;53.80
18882;DHT22;9573;50.948;11.600;2022-09-01T12:15:31;30.10;54.70
18882;DHT22;9573;50.948;11.600;2022-09-01T12:18:13;29.20;56.20
18882;DHT22;9573;50.948;11.600;2022-09-01T12:20:44;28.20;57.50
18882;DHT22;9573;50.948;11.600;2022-09-01T12:23:17;27.30;59.10
18882;DHT22;9573;50.948;11.600;2022-09-01T12:25:51;26.70;60.30
18882;DHT22;9573;50.948;11.600;2022-09-01T12:28:21;26.10;61.50
18882;DHT22;9573;50.948;11.600;2022-09-01T12:30:49;25.60;63.20
18882;DHT22;9573;50.948;11.600;2022-09-01T12:33:18;25.20;63.30
18882;DHT22;9573;50.948;11.600;2022-09-01T12:35:46;24.80;63.90
18882;DHT22;9573;50.948;11.600;2022-09-01T12:38:24;24.40;65.40
18882;DHT22;9573;50.948;11.600;2022-09-01T12:40:56;24.10;67.00
18882;DHT22;9573;50.948;11.600;2022-09-01T12:43:33;24.00;67.40
18882;DHT22;9573;50.948;11.600;2022-09-01T12:46:01;24.00;67.90
18882;DHT22;9573;50.948;11.600;2022-09-01T12:48:32;24.10;67.30
18882;DHT22;9573;50.948;11.600;2022-09-01T12:51:02;24.20;67.60
18882;DHT22;9573;50.948;11.600;2022-09-01T12:53:32;24.30;67.70
18882;DHT22;9573;50.948;11.600;2022-09-01T12:56:17;24.40;67.40
18882;DHT22;9573;50.948;11.600;2022-09-01T12:58:48;24.30;67.20
18882;DHT22;9573;50.948;11.600;2022-09-01T13:01:30;24.30;66.20
18882;DHT22;9573;50.948;11.600;2022-09-01T13:04:26;24.50;66.70
18882;DHT22;9573;50.948;11.600;2022-09-01T13:07:01;24.50;64.90
18882;DHT22;9573;50.948;11.600;2022-09-01T13:09:30;24.60;64.40
18882;DHT22;9573;50.948;11.600;2022-09-01T13:12:16;25.40;63.30
18882;DHT22;9573;50.948;11.600;2022-09-01T13:14:44;25.90;62.10
18882;DHT22;9573;50.948;11.600;2022-09-01T13:17:12;26.50;60.80
18882;DHT22;9573;50.948;11.600;2022-09-01T13:19:39;27.10;59.20
18882;DHT22;9573;50.948;11.600;2022-09-01T13:22:07;27.70;58.30
18882;DHT22;9573;50.948;11.600;2022-09-01T13:24:34;28.10;56.80
18882;DHT22;9573;50.948;11.600;2022-09-01T13:27:01;28.10;57.00
18882;DHT22;9573;50.948;11.600;2022-09-01T13:29:31;27.70;56.70
18882;DHT22;9573;50.948;11.600;2022-09-01T13:31:58;27.20;57.50
18882;DHT22;9573;50.948;11.600;2022-09-01T13:34:26;26.70;58.70
18882;DHT22;9573;50.948;11.600;2022-09-01T13:36:53;26.30;59.80
18882;DHT22;9573;50.948;11.600;2022-09-01T13:39:20;25.90;60.00
18882;DHT22;9573;50.948;11.600;2022-09-01T13:41:47;25.80;60.00
18882;DHT22;9573;50.948;11.600;2022-09-01T13:44:15;25.50;60.00
18882;DHT22;9573;50.948;11.600;2022-09-01T13:46:45;25.20;60.80
18882;DHT22;9573;50.948;11.600;2022-09-01T13:49:12;24.90;60.00
18882;DHT22;9573;50.948;11.600;2022-09-01T13:51:40;24.70;60.50
18882;DHT22;9573;50.948;11.600;2022-09-01T13:54:07;24.50;61.20
18882;DHT22;9573;50.948;11.600;2022-09-01T13:56:34;24.30;61.10
18882;DHT22;9573;50.948;11.600;2022-09-01T13:59:02;24.10;62.10
18882;DHT22;9573;50.948;11.600;2022-09-01T14:01:29;24.10;62.50
18882;DHT22;9573;50.948;11.600;2022-09-01T14:03:58;23.80;62.80
18882;DHT22;9573;50.948;11.600;2022-09-01T14:06:26;23.80;62.70
18882;DHT22;9573;50.948;11.600;2022-09-01T14:08:53;23.80;63.70
18882;DHT22;9573;50.948;11.600;2022-09-01T14:11:22;23.80;62.70
18882;DHT22;9573;50.948;11.600;2022-09-01T14:13:51;23.70;62.90
18882;DHT22;9573;50.948;11.600;2022-09-01T14:16:19;23.70;61.30
18882;DHT22;9573;50.948;11.600;2022-09-01T14:18:46;23.60;60.10
18882;DHT22;9573;50.948;11.600;2022-09-01T14:21:15;23.60;59.90
18882;DHT22;9573;50.948;11.600;2022-09-01T14:23:43;23.50;59.50
18882;DHT22;9573;50.948;11.600;2022-09-01T14:26:15;23.40;60.60
18882;DHT22;9573;50.948;11.600;2022-09-01T14:28:43;23.30;60.30
18882;DHT22;9573;50.948;11.600;2022-09-01T14:31:14;23.30;60.60
18882;DHT22;9573;50.948;11.600;2022-09-01T14:33:43;23.20;60.60
18882;DHT22;9573;50.948;11.600;2022-09-01T14:36:18;23.40;61.10
18882;DHT22;9573;50.948;11.600;2022-09-01T14:38:48;23.30;59.30
18882;DHT22;9573;50.948;11.600;2022-09-01T14:41:17;23.20;59.30
18882;DHT22;9573;50.948;11.600;2022-09-01T14:43:47;23.30;60.20
18882;DHT22;9573;50.948;11.600;2022-09-01T14:46:15;23.40;60.20
18882;DHT22;9573;50.948;11.600;2022-09-01T14:48:43;23.40;59.40
18882;DHT22;9573;50.948;11.600;2022-09-01T14:51:20;23.30;60.00
18882;DHT22;9573;50.948;11.600;2022-09-01T14:53:49;23.20;59.00
18882;DHT22;9573;50.948;11.600;2022-09-01T14:56:16;23.10;59.30
18882;DHT22;9573;50.948;11.600;2022-09-01T14:58:44;23.10;59.30
18882;DHT22;9573;50.948;11.600;2022-09-01T15:01:12;23.20;59.60
18882;DHT22;9573;50.948;11.600;2022-09-01T15:03:41;23.20;59.60
18882;DHT22;9573;50.948;11.600;2022-09-01T15:06:11;23.20;60.00
18882;DHT22;9573;50.948;11.600;2022-09-01T15:08:40;23.20;60.00
18882;DHT22;9573;50.948;11.600;2022-09-01T15:11:09;23.10;60.00
18882;DHT22;9573;50.948;11.600;2022-09-01T15:13:37;23.00;60.50
18882;DHT22;9573;50.948;11.600;2022-09-01T15:16:12;22.90;59.90
18882;DHT22;9573;50.948;11.600;2022-09-01T15:18:39;22.80;60.10
18882;DHT22;9573;50.948;11.600;2022-09-01T15:21:07;22.70;60.70
18882;DHT22;9573;50.948;11.600;2022-09-01T15:23:34;22.60;61.00
18882;DHT22;9573;50.948;11.600;2022-09-01T15:26:03;22.40;61.60
18882;DHT22;9573;50.948;11.600;2022-09-01T15:28:30;22.30;62.00
18882;DHT22;9573;50.948;11.600;2022-09-01T15:30:58;22.20;62.20
18882;DHT22;9573;50.948;11.600;2022-09-01T15:33:25;22.30;62.10
18882;DHT22;9573;50.948;11.600;2022-09-01T15:35:52;22.40;62.10
18882;DHT22;9573;50.948;11.600;2022-09-01T15:38:19;22.50;61.70
18882;DHT22;9573;50.948;11.600;2022-09-01T15:40:47;22.50;62.00
18882;DHT22;9573;50.948;11.600;2022-09-01T15:43:15;22.50;61.90
18882;DHT22;9573;50.948;11.600;2022-09-01T15:45:45;22.60;61.80
18882;DHT22;9573;50.948;11.600;2022-09-01T15:48:12;22.60;61.60
18882;DHT22;9573;50.948;11.600;2022-09-01T15:50:39;22.60;61.40
18882;DHT22;9573;50.948;11.600;2022-09-01T15:53:07;22.60;61.70
18882;DHT22;9573;50.948;11.600;2022-09-01T15:55:40;22.60;61.70
18882;DHT22;9573;50.948;11.600;2022-09-01T15:58:10;22.60;62.00
18882;DHT22;9573;50.948;11.600;2022-09-01T16:00:40;22.60;62.30
18882;DHT22;9573;50.948;11.600;2022-09-01T16:03:08;22.50;62.80